createdAt,value
2018-07-01T00:02:03.354Z,100836.50
2018-07-01T00:04:32.982Z,100836.59
2018-07-01T00:07:02.661Z,100831.04
2018-07-01T00:09:32.299Z,100836.20
2018-07-01T00:12:01.950Z,100837.05
2018-07-01T00:14:47.874Z,100831.34
2018-07-01T00:17:17.565Z,100830.42
2018-07-01T00:19:47.162Z,100827.70
2018-07-01T00:22:16.846Z,100829.23
2018-07-01T00:24:46.429Z,100827.66
2018-07-01T00:27:16.031Z,100832.98
2018-07-01T00:29:45.915Z,100836.00
2018-07-01T00:32:15.618Z,100835.55
2018-07-01T00:34:45.266Z,100841.03
2018-07-01T00:37:14.898Z,100838.91
2018-07-01T00:39:44.571Z,100841.31
2018-07-01T00:42:14.199Z,100839.96
2018-07-01T00:44:43.820Z,100842.08
2018-07-01T00:47:13.462Z,100843.73
2018-07-01T00:49:43.082Z,100842.56
2018-07-01T00:52:12.681Z,100837.25
2018-07-01T00:54:42.322Z,100843.38
2018-07-01T00:57:11.982Z,100839.17
2018-07-01T00:59:41.586Z,100837.46
2018-07-01T01:02:11.222Z,100834.98
2018-07-01T01:04:40.874Z,100836.14
2018-07-01T01:07:10.478Z,100839.02
2018-07-01T01:09:40.105Z,100836.50
2018-07-01T01:12:09.706Z,100838.30
2018-07-01T01:14:39.374Z,100840.02
2018-07-01T01:17:09.011Z,100846.55
2018-07-01T01:19:38.609Z,100836.27
2018-07-01T01:22:08.314Z,100836.27
2018-07-01T01:24:37.942Z,100830.23
2018-07-01T01:27:07.595Z,100833.90
2018-07-01T01:29:37.225Z,100835.81
2018-07-01T01:32:06.929Z,100835.62
2018-07-01T01:34:36.597Z,100833.91
2018-07-01T01:37:06.295Z,100840.86
2018-07-01T01:39:38.685Z,100836.61
2018-07-01T01:42:12.490Z,100836.48
2018-07-01T01:44:46.572Z,100838.64
2018-07-01T01:47:23.284Z,100849.50
2018-07-01T01:49:59.310Z,100849.14
2018-07-01T01:52:41.634Z,100855.97
2018-07-01T01:55:16.055Z,100855.83
2018-07-01T01:58:06.978Z,100849.39
2018-07-01T02:00:48.597Z,100849.63
2018-07-01T02:03:23.440Z,100856.15
2018-07-01T02:05:57.617Z,100860.76
2018-07-01T02:08:32.141Z,100858.61
2018-07-01T02:11:01.875Z,100853.75
2018-07-01T02:13:32.609Z,100855.10
2018-07-01T02:16:05.742Z,100863.41
2018-07-01T02:18:35.375Z,100864.09
2018-07-01T02:21:05.166Z,100856.98
2018-07-01T02:23:38.286Z,100859.63
2018-07-01T02:26:08.023Z,100855.69
2018-07-01T02:28:37.799Z,100855.57
2018-07-01T02:31:07.694Z,100860.14
2018-07-01T02:33:37.399Z,100863.31
2018-07-01T02:36:07.067Z,100864.72
2018-07-01T02:38:36.641Z,100864.28
2018-07-01T02:41:06.292Z,100863.38
2018-07-01T02:43:35.912Z,100860.37
2018-07-01T02:46:05.595Z,100855.48
2018-07-01T02:48:35.210Z,100856.21
2018-07-01T02:51:04.837Z,100856.28
2018-07-01T02:53:34.513Z,100856.63
2018-07-01T02:56:04.406Z,100853.16
2018-07-01T02:58:34.174Z,100860.56
2018-07-01T03:01:03.789Z,100861.39
2018-07-01T03:03:33.396Z,100868.44
2018-07-01T03:06:02.963Z,100865.89
2018-07-01T03:08:32.594Z,100875.03
2018-07-01T03:11:02.258Z,100879.00
2018-07-01T03:13:31.890Z,100873.53
2018-07-01T03:16:01.518Z,100881.96
2018-07-01T03:18:31.269Z,100879.52
2018-07-01T03:21:00.845Z,100885.95
2018-07-01T03:23:30.434Z,100887.47
2018-07-01T03:26:00.034Z,100883.66
2018-07-01T03:28:29.650Z,100889.67
2018-07-01T03:30:59.325Z,100885.97
2018-07-01T03:33:28.952Z,100885.25
2018-07-01T03:35:58.590Z,100886.31
2018-07-01T03:38:28.242Z,100880.50
2018-07-01T03:40:57.874Z,100884.77
2018-07-01T03:43:27.497Z,100897.88
2018-07-01T03:45:57.114Z,100898.01
2018-07-01T03:48:26.749Z,100892.17
2018-07-01T03:50:56.365Z,100888.55
2018-07-01T03:53:26.042Z,100898.97
2018-07-01T03:55:55.637Z,100902.43
2018-07-01T03:58:25.286Z,100905.65
2018-07-01T04:00:54.899Z,100904.98
2018-07-01T04:03:24.523Z,100904.86
2018-07-01T04:05:54.165Z,100911.50
2018-07-01T04:08:23.810Z,100918.97
2018-07-01T04:10:53.416Z,100921.92
2018-07-01T04:13:23.067Z,100918.77
2018-07-01T04:15:52.722Z,100917.09
2018-07-01T04:18:22.314Z,100917.25
2018-07-01T04:20:51.941Z,100920.17
2018-07-01T04:23:21.553Z,100915.49
2018-07-01T04:25:51.212Z,100918.19
2018-07-01T04:28:20.797Z,100916.58
2018-07-01T04:30:50.456Z,100918.94
2018-07-01T04:33:20.090Z,100924.11
2018-07-01T04:35:49.732Z,100916.90
2018-07-01T04:38:19.360Z,100919.99
2018-07-01T04:40:49.001Z,100930.30
2018-07-01T04:43:18.602Z,100925.98
2018-07-01T04:45:48.249Z,100923.19
2018-07-01T04:48:17.902Z,100922.70
2018-07-01T04:50:47.518Z,100924.77
2018-07-01T04:53:17.160Z,100927.30
2018-07-01T04:55:46.769Z,100924.59
2018-07-01T04:58:16.405Z,100930.70
2018-07-01T05:00:46.054Z,100932.20
2018-07-01T05:03:15.677Z,100929.55
2018-07-01T05:05:45.354Z,100931.40
2018-07-01T05:08:14.995Z,100934.52
2018-07-01T05:10:44.709Z,100940.44
2018-07-01T05:13:14.351Z,100939.29
2018-07-01T05:15:44.145Z,100945.77
2018-07-01T05:18:13.786Z,100941.72
2018-07-01T05:20:43.401Z,100948.66
2018-07-01T05:23:13.002Z,100945.12
2018-07-01T05:25:42.607Z,100950.02
2018-07-01T05:28:12.273Z,100949.21
2018-07-01T05:30:41.892Z,100951.56
2018-07-01T05:33:11.482Z,100950.14
2018-07-01T05:35:41.101Z,100952.22
2018-07-01T05:38:10.674Z,100955.18
2018-07-01T05:40:40.306Z,100949.52
2018-07-01T05:43:10.044Z,100953.64
2018-07-01T05:45:39.682Z,100954.20
2018-07-01T05:48:09.298Z,100954.33
2018-07-01T05:50:38.938Z,100967.27
2018-07-01T05:53:08.578Z,100965.55
2018-07-01T05:55:38.221Z,100959.91
2018-07-01T05:58:07.833Z,100963.80
2018-07-01T06:00:37.575Z,100958.34
2018-07-01T06:03:07.250Z,100952.44
2018-07-01T06:05:36.906Z,100952.33
2018-07-01T06:08:06.678Z,100957.48
2018-07-01T06:10:36.333Z,100952.72
2018-07-01T06:13:06.018Z,100958.81
2018-07-01T06:15:35.714Z,100950.91
2018-07-01T06:18:05.429Z,100958.55
2018-07-01T06:20:35.046Z,100961.52
2018-07-01T06:23:04.687Z,100951.27
2018-07-01T06:25:34.358Z,100960.05
2018-07-01T06:28:03.986Z,100958.33
2018-07-01T06:30:33.639Z,100960.22
2018-07-01T06:33:03.255Z,100955.45
2018-07-01T06:35:32.569Z,100955.54
2018-07-01T06:38:02.202Z,100951.27
2018-07-01T06:40:31.834Z,100960.42
2018-07-01T06:43:01.504Z,100959.76
2018-07-01T06:45:31.223Z,100954.10
2018-07-01T06:48:00.890Z,100965.41
2018-07-01T06:50:30.481Z,100959.64
2018-07-01T06:53:00.126Z,100959.50
2018-07-01T06:55:29.761Z,100954.55
2018-07-01T06:57:59.389Z,100958.66
2018-07-01T07:00:29.012Z,100947.05
2018-07-01T07:02:58.756Z,100959.45
2018-07-01T07:05:28.377Z,100954.12
2018-07-01T07:07:58.033Z,100949.73
2018-07-01T07:10:27.681Z,100946.43
2018-07-01T07:12:57.333Z,100953.39
2018-07-01T07:15:26.998Z,100957.44
2018-07-01T07:17:56.686Z,100960.70
2018-07-01T07:20:26.413Z,100967.48
2018-07-01T07:22:56.395Z,100965.30
2018-07-01T07:25:26.023Z,100979.52
2018-07-01T07:27:55.597Z,100972.05
2018-07-01T07:30:25.241Z,100973.23
2018-07-01T07:32:54.860Z,100972.05
2018-07-01T07:35:24.509Z,100968.61
2018-07-01T07:37:54.458Z,100967.77
2018-07-01T07:40:24.134Z,100961.06
2018-07-01T07:42:53.798Z,100977.29
2018-07-01T07:45:42.955Z,100972.00
2018-07-01T07:57:43.890Z,100958.66
2018-07-01T08:00:15.558Z,100966.38
2018-07-01T08:02:45.563Z,100971.44
2018-07-01T08:05:15.332Z,100961.81
2018-07-01T08:07:45.107Z,100963.45
2018-07-01T08:10:15.046Z,100960.38
2018-07-01T08:15:45.435Z,100966.78
2018-07-01T08:18:15.426Z,100950.30
2018-07-01T08:20:45.197Z,100959.37
2018-07-01T08:23:15.041Z,100966.44
2018-07-01T08:38:04.816Z,100968.16
2018-07-01T08:40:41.804Z,100972.63
2018-07-01T08:43:15.560Z,100971.03
2018-07-01T08:48:45.235Z,100969.13
2018-07-01T08:51:40.348Z,100963.15
2018-07-01T08:54:11.817Z,100968.90
2018-07-01T08:56:42.502Z,100963.88
2018-07-01T08:59:14.719Z,100963.05
2018-07-01T09:04:45.765Z,100972.00
2018-07-01T09:07:36.233Z,100966.30
2018-07-01T09:10:12.315Z,100974.45
2018-07-01T09:15:36.670Z,100962.87
2018-07-01T09:18:12.323Z,100962.64
2018-07-01T09:20:47.998Z,100955.02
2018-07-01T09:23:28.292Z,100953.26
2018-07-01T09:26:05.418Z,100949.78
2018-07-01T09:28:42.778Z,100957.11
2018-07-01T09:36:40.406Z,100954.63
2018-07-01T09:39:28.660Z,100953.23
2018-07-01T09:42:16.090Z,100944.39
2018-07-01T09:44:48.500Z,100950.00
2018-07-01T09:47:18.876Z,100935.17
2018-07-01T09:51:08.379Z,100950.27
2018-07-01T09:53:49.075Z,100949.58
2018-07-01T09:56:33.779Z,100947.05
2018-07-01T09:59:03.916Z,100936.22
2018-07-01T10:01:34.706Z,100943.55
2018-07-01T10:04:04.581Z,100933.81
2018-07-01T10:06:34.577Z,100936.51
2018-07-01T10:25:32.065Z,100928.35
2018-07-01T10:28:06.823Z,100920.95
2018-07-01T10:36:24.858Z,100928.78
2018-07-01T10:39:03.015Z,100919.45
2018-07-01T10:41:53.345Z,100918.45
2018-07-01T10:44:30.568Z,100931.36
2018-07-01T10:47:32.491Z,100921.63
2018-07-01T10:50:04.285Z,100919.90
2018-07-01T10:52:34.343Z,100920.71
2018-07-01T11:14:02.796Z,100901.52
2018-07-01T11:27:03.134Z,100886.53
2018-07-01T11:29:34.163Z,100884.77
2018-07-01T11:32:06.052Z,100873.01
2018-07-01T11:34:36.819Z,100876.98
2018-07-01T11:37:06.903Z,100878.72
2018-07-01T11:39:37.658Z,100875.64
2018-07-01T11:42:07.755Z,100877.38
2018-07-01T11:54:55.846Z,100859.61
2018-07-01T12:00:41.587Z,100864.75
2018-07-01T12:03:11.435Z,100860.42
2018-07-01T12:05:41.511Z,100857.11
2018-07-01T12:11:28.084Z,100859.53
2018-07-01T12:14:04.095Z,100860.68
2018-07-01T12:16:39.251Z,100853.55
2018-07-01T12:19:37.297Z,100854.10
2018-07-01T12:25:17.865Z,100839.48
2018-07-01T12:32:38.123Z,100833.26
2018-07-01T12:38:30.829Z,100833.95
2018-07-01T12:44:19.804Z,100835.23
2018-07-01T13:02:57.072Z,100824.74
2018-07-01T13:21:28.820Z,100816.19
2018-07-01T13:24:26.401Z,100805.59
2018-07-01T13:27:04.535Z,100815.05
2018-07-01T13:30:26.169Z,100814.09
2018-07-01T13:33:16.345Z,100801.86
2018-07-01T13:39:25.065Z,100804.39
2018-07-01T13:50:28.622Z,100793.44
2018-07-01T14:20:40.926Z,100755.75
2018-07-01T14:23:24.624Z,100747.38
2018-07-01T14:25:54.447Z,100740.36
2018-07-01T14:33:21.584Z,100749.39
2018-07-01T14:35:54.647Z,100734.64
2018-07-01T14:38:25.121Z,100742.71
2018-07-01T14:46:16.113Z,100739.36
2018-07-01T14:49:17.605Z,100732.99
2018-07-01T15:00:16.284Z,100717.20
2018-07-01T15:03:15.411Z,100722.97
2018-07-01T15:29:46.028Z,100723.89
2018-07-01T15:32:18.361Z,100707.14
2018-07-01T15:37:29.567Z,100701.32
2018-07-01T15:40:20.155Z,100697.35
2018-07-01T15:44:05.022Z,100695.13
2018-07-01T15:47:12.528Z,100695.00
2018-07-01T15:49:44.009Z,100687.36
2018-07-01T15:52:14.275Z,100684.37
2018-07-01T15:54:48.200Z,100690.23
2018-07-01T16:00:14.040Z,100685.23
2018-07-01T16:02:44.133Z,100686.19
2018-07-01T16:05:16.171Z,100678.31
2018-07-01T16:07:46.898Z,100673.91
2018-07-01T16:10:43.339Z,100676.38
2018-07-01T16:13:14.971Z,100687.66
2018-07-01T16:16:07.567Z,100683.31
2018-07-01T16:18:43.951Z,100682.80
2018-07-01T16:21:17.511Z,100679.66
2018-07-01T16:23:48.576Z,100685.09
2018-07-01T16:29:02.408Z,100684.59
2018-07-01T16:31:33.310Z,100686.45
2018-07-01T16:34:05.142Z,100681.08
2018-07-01T16:36:57.624Z,100684.20
2018-07-01T16:39:30.712Z,100677.52
2018-07-01T16:42:02.671Z,100680.35
2018-07-01T16:44:44.579Z,100677.44
2018-07-01T16:47:17.807Z,100684.70
2018-07-01T16:49:48.005Z,100686.70
2018-07-01T16:52:18.289Z,100684.17
2018-07-01T16:54:48.452Z,100682.14
2018-07-01T16:57:18.500Z,100683.80
2018-07-01T16:59:51.047Z,100686.11
2018-07-01T17:02:32.187Z,100688.39
2018-07-01T17:05:02.647Z,100691.14
2018-07-01T17:07:32.836Z,100685.92
2018-07-01T17:10:15.025Z,100685.30
2018-07-01T17:12:45.886Z,100684.72
2018-07-01T17:15:33.648Z,100690.12
2018-07-01T17:18:18.035Z,100689.02
2018-07-01T17:21:14.371Z,100682.19
2018-07-01T17:23:52.284Z,100679.22
2018-07-01T17:26:22.672Z,100689.90
2018-07-01T17:28:53.244Z,100686.88
2018-07-01T17:31:29.946Z,100686.44
2018-07-01T17:34:00.473Z,100683.83
2018-07-01T17:36:30.693Z,100690.02
2018-07-01T17:39:02.415Z,100686.19
2018-07-01T17:41:44.786Z,100686.91
2018-07-01T17:44:15.653Z,100690.12
2018-07-01T17:46:49.469Z,100687.59
2018-07-01T17:49:21.164Z,100690.64
2018-07-01T17:51:51.500Z,100689.65
2018-07-01T17:54:23.074Z,100692.31
2018-07-01T17:56:53.167Z,100691.60
2018-07-01T17:59:23.102Z,100689.61
2018-07-01T18:01:52.976Z,100694.45
2018-07-01T18:04:24.136Z,100701.27
2018-07-01T18:06:54.361Z,100692.59
2018-07-01T18:09:24.340Z,100693.08
2018-07-01T18:12:00.072Z,100700.59
2018-07-01T18:14:30.772Z,100695.59
2018-07-01T18:17:00.698Z,100695.26
2018-07-01T18:19:34.684Z,100694.93
2018-07-01T18:22:21.724Z,100691.47
2018-07-01T18:24:53.940Z,100693.86
2018-07-01T18:27:14.615Z,100694.47
2018-07-01T18:29:54.796Z,100694.19
2018-07-01T18:32:29.665Z,100694.30
2018-07-01T18:34:59.714Z,100695.72
2018-07-01T18:37:29.659Z,100695.80
2018-07-01T18:39:59.849Z,100694.07
2018-07-01T18:42:32.541Z,100701.72
2018-07-01T18:45:02.343Z,100698.27
2018-07-01T18:47:32.300Z,100698.73
2018-07-01T18:50:04.366Z,100692.98
2018-07-01T18:52:35.688Z,100700.92
2018-07-01T18:55:05.704Z,100697.81
2018-07-01T18:57:36.253Z,100697.84
2018-07-01T19:00:12.492Z,100701.71
2018-07-01T19:02:43.971Z,100706.04
2018-07-01T19:05:14.145Z,100696.05
2018-07-01T19:07:44.702Z,100705.30
2018-07-01T19:10:14.865Z,100699.41
2018-07-01T19:12:45.678Z,100702.80
2018-07-01T19:15:16.825Z,100704.64
2018-07-01T19:17:47.100Z,100712.22
2018-07-01T19:20:17.107Z,100712.50
2018-07-01T19:22:47.368Z,100712.59
2018-07-01T19:25:25.091Z,100711.92
2018-07-01T19:27:58.339Z,100715.13
2018-07-01T19:34:59.799Z,100729.59
2018-07-01T19:37:29.793Z,100731.36
2018-07-01T19:40:00.278Z,100732.47
2018-07-01T19:42:42.299Z,100729.79
2018-07-01T19:48:40.202Z,100739.59
2018-07-01T19:51:12.756Z,100747.47
2018-07-01T19:59:57.682Z,100755.55
2018-07-01T20:05:37.000Z,100763.33
2018-07-01T20:08:08.294Z,100762.39
2018-07-01T20:10:39.591Z,100758.63
2018-07-01T20:13:13.066Z,100766.31
2018-07-01T20:18:47.723Z,100765.84
2018-07-01T20:21:17.903Z,100772.48
2018-07-01T20:26:43.727Z,100784.55
2018-07-01T20:29:18.807Z,100781.45
2018-07-01T20:31:49.057Z,100786.33
2018-07-01T20:34:32.807Z,100781.85
2018-07-01T20:37:03.250Z,100785.68
2018-07-01T20:39:33.391Z,100785.03
2018-07-01T20:42:14.509Z,100792.55
2018-07-01T20:44:52.314Z,100786.36
2018-07-01T20:47:34.428Z,100798.50
2018-07-01T20:50:52.057Z,100795.84
2018-07-01T20:53:26.181Z,100794.74
2018-07-01T20:55:57.646Z,100797.34
2018-07-01T20:58:36.909Z,100797.03
2018-07-01T21:01:08.760Z,100797.83
2018-07-01T21:03:38.678Z,100794.58
2018-07-01T21:06:08.796Z,100797.67
2018-07-01T21:08:41.033Z,100800.33
2018-07-01T21:11:14.713Z,100811.13
2018-07-01T21:13:45.995Z,100808.15
2018-07-01T21:16:15.931Z,100803.81
2018-07-01T21:18:46.112Z,100814.98
2018-07-01T21:21:16.067Z,100807.33
2018-07-01T21:23:46.010Z,100813.49
2018-07-01T21:26:16.013Z,100811.98
2018-07-01T21:28:46.029Z,100815.24
2018-07-01T21:31:16.535Z,100815.20
2018-07-01T21:33:49.917Z,100820.86
2018-07-01T21:36:25.210Z,100827.29
2018-07-01T21:38:59.231Z,100825.06
2018-07-01T21:41:29.738Z,100828.34
2018-07-01T21:44:14.480Z,100822.34
2018-07-01T21:46:44.350Z,100825.66
2018-07-01T21:49:14.254Z,100827.79
2018-07-01T21:51:47.841Z,100826.90
2018-07-01T22:09:19.186Z,100843.95
2018-07-01T22:15:15.669Z,100844.36
2018-07-01T22:47:43.713Z,100849.17
2018-07-01T22:50:37.181Z,100856.48
2018-07-01T22:53:28.233Z,100859.50
2018-07-01T22:55:59.634Z,100857.17
2018-07-01T22:58:31.055Z,100860.65
2018-07-01T23:01:13.401Z,100861.56
2018-07-01T23:03:56.607Z,100855.02
2018-07-01T23:17:40.258Z,100848.33
2018-07-01T23:20:23.631Z,100846.43
2018-07-01T23:23:09.650Z,100844.58
2018-07-01T23:25:40.447Z,100853.00
2018-07-01T23:28:10.643Z,100851.92
2018-07-01T23:30:40.805Z,100848.23
2018-07-01T23:33:10.880Z,100847.98
2018-07-01T23:35:42.100Z,100849.69
2018-07-01T23:43:09.495Z,100843.41
2018-07-01T23:45:40.312Z,100849.89
2018-07-01T23:48:12.242Z,100843.62
2018-07-01T23:50:52.932Z,100841.15
2018-07-01T23:53:33.381Z,100845.03
2018-07-01T23:56:06.652Z,100838.88
2018-07-01T23:58:39.497Z,100840.09
